Time;durP1;ratioP1;P1;durP2;ratioP2;P2;SDS_P1;SDS_P2;PMS_P1;PMS_P2;Temp;Humidity;BMP_temperature;BMP_pressure;BME280_temperature;BME280_humidity;BME280_pressure;Samples;Min_cycle;Max_cycle;Signal;HPM_P1;HPM_P2
2023/10/05 00:00:37;;;;;;;5.80;1.90;;;;;;;;;;4181453;28;20402;-73
2023/10/05 00:02:40;;;;;;;4.13;1.80;;;;;;;;;;4194942;28;20094;-74
2023/10/05 00:04:42;;;;;;;3.35;1.50;;;;;;;;;;4192950;28;20048;-76
2023/10/05 00:06:45;;;;;;;6.72;1.80;;;;;;;;;;4219700;28;20096;-74
2023/10/05 00:08:48;;;;;;;5.38;2.08;;;;;;;;;;4185822;28;20052;-74
2023/10/05 00:10:50;;;;;;;5.38;2.10;;;;;;;;;;4192710;28;20048;-74
2023/10/05 00:12:54;;;;;;;5.90;1.90;;;;;;;;;;4190164;28;20063;-74
2023/10/05 00:15:09;;;;;;;4.70;1.90;;;;;;;;;;4206881;28;20402;-76
2023/10/05 00:17:13;;;;;;;4.77;2.07;;;;;;;;;;4193975;28;20054;-74
2023/10/05 00:19:18;;;;;;;4.30;1.70;;;;;;;;;;4185654;28;20052;-76
2023/10/05 00:21:21;;;;;;;;;;;;;;;;;;4197515;28;20048;-74
2023/10/05 00:23:23;;;;;;;5.78;1.38;;;;;;;;;;4185355;28;20354;-75
2023/10/05 00:25:28;;;;;;;6.05;2.13;;;;;;;;;;4181247;28;20136;-73
2023/10/05 00:27:30;;;;;;;5.50;2.05;;;;;;;;;;4181326;28;20139;-76
2023/10/05 00:29:40;;;;;;;6.72;1.95;;;;;;;;;;4192472;28;20049;-76
2023/10/05 00:31:43;;;;;;;5.95;2.30;;;;;;;;;;4183893;28;20047;-75
2023/10/05 00:33:46;;;;;;;6.45;2.42;;;;;;;;;;4181306;28;20514;-72
2023/10/05 00:35:49;;;;;;;4.82;2.00;;;;;;;;;;4181358;28;20123;-75
2023/10/05 00:37:50;;;;;;;5.47;2.20;;;;;;;;;;4181516;28;20057;-74
2023/10/05 00:39:54;;;;;;;4.47;1.90;;;;;;;;;;4181254;28;20079;-78
2023/10/05 00:42:08;;;;;;;4.03;1.77;;;;;;;;;;4184538;28;20124;-77
2023/10/05 00:44:12;;;;;;;4.25;1.73;;;;;;;;;;4184462;28;20052;-76
2023/10/05 00:46:14;;;;;;;7.10;1.80;;;;;;;;;;4200719;28;20543;-73
2023/10/05 00:48:29;;;;;;;4.07;1.83;;;;;;;;;;4197393;28;20051;-74
2023/10/05 00:50:34;;;;;;;3.85;1.80;;;;;;;;;;4184395;28;20060;-73
2023/10/05 00:52:36;;;;;;;5.55;1.77;;;;;;;;;;4184469;28;20501;-76
2023/10/05 00:54:38;;;;;;;4.82;1.73;;;;;;;;;;4195248;28;20048;-74
2023/10/05 00:56:41;;;;;;;5.03;1.95;;;;;;;;;;4200369;28;20045;-75
2023/10/05 00:58:44;;;;;;;5.60;2.10;;;;;;;;;;4192827;28;20079;-76
2023/10/05 01:00:50;;;;;;;5.18;1.95;;;;;;;;;;4184638;28;20045;-73
2023/10/05 01:03:11;;;;;;;6.63;2.10;;;;;;;;;;4184344;28;20048;-74
2023/10/05 01:05:16;;;;;;;5.70;2.10;;;;;;;;;;4184576;28;20060;-77
2023/10/05 01:07:28;;;;;;;5.10;2.13;;;;;;;;;;4197474;28;20383;-75
2023/10/05 01:09:55;;;;;;;7.32;2.47;;;;;;;;;;4195377;28;20045;-75
2023/10/05 01:12:12;;;;;;;6.60;1.85;;;;;;;;;;4185269;28;20121;-77
2023/10/05 01:14:16;;;;;;;4.38;2.05;;;;;;;;;;4184144;28;20091;-77
2023/10/05 01:16:20;;;;;;;6.30;1.88;;;;;;;;;;4184676;28;20052;-76
2023/10/05 01:18:25;;;;;;;4.90;2.20;;;;;;;;;;4207582;28;20044;-75
2023/10/05 01:20:29;;;;;;;5.40;2.10;;;;;;;;;;4189432;28;20045;-77
2023/10/05 01:22:36;;;;;;;4.07;1.58;;;;;;;;;;4194329;28;20095;-74
2023/10/05 01:24:41;;;;;;;6.55;2.30;;;;;;;;;;4199667;28;20045;-75
2023/10/05 01:26:44;;;;;;;5.57;2.25;;;;;;;;;;4197168;28;20044;-73
2023/10/05 01:28:46;;;;;;;5.13;1.80;;;;;;;;;;4190395;28;20481;-77
2023/10/05 01:30:48;;;;;;;5.88;2.00;;;;;;;;;;4183896;28;20071;-76
2023/10/05 01:32:50;;;;;;;6.30;2.10;;;;;;;;;;4183732;28;20407;-75
2023/10/05 01:34:53;;;;;;;5.00;1.90;;;;;;;;;;4183825;28;20389;-74
2023/10/05 01:36:55;;;;;;;6.05;2.05;;;;;;;;;;4183758;28;20045;-75
2023/10/05 01:39:02;;;;;;;5.85;2.00;;;;;;;;;;4188277;28;20498;-75
2023/10/05 01:41:08;;;;;;;5.50;2.22;;;;;;;;;;4200130;28;20048;-74
2023/10/05 01:43:12;;;;;;;5.07;2.03;;;;;;;;;;4183697;28;20045;-77
2023/10/05 01:45:15;;;;;;;4.97;1.80;;;;;;;;;;4199954;28;20041;-74
2023/10/05 01:47:22;;;;;;;4.63;1.80;;;;;;;;;;4199161;28;20040;-75
2023/10/05 01:49:25;;;;;;;5.65;2.35;;;;;;;;;;4185365;28;20049;-76
2023/10/05 01:51:27;;;;;;;5.53;1.90;;;;;;;;;;4183117;28;20049;-77
2023/10/05 01:53:28;;;;;;;4.80;1.90;;;;;;;;;;4183586;28;20498;-77
2023/10/05 01:55:34;;;;;;;4.63;1.70;;;;;;;;;;4183521;28;20049;-74
2023/10/05 01:57:44;;;;;;;;;;;;;;;;;;4186529;28;20486;-76
2023/10/05 01:59:46;;;;;;;5.97;2.17;;;;;;;;;;4183703;28;20259;-75
2023/10/05 02:01:48;;;;;;;5.68;2.20;;;;;;;;;;4183001;28;20056;-75
2023/10/05 02:03:54;;;;;;;6.35;1.92;;;;;;;;;;4196736;28;20478;-74
2023/10/05 02:05:58;;;;;;;4.43;1.98;;;;;;;;;;4199561;28;20462;-77
2023/10/05 02:08:01;;;;;;;4.47;1.73;;;;;;;;;;4198763;28;20402;-75
2023/10/05 02:10:09;;;;;;;4.43;1.55;;;;;;;;;;4199870;28;20049;-77
2023/10/05 02:12:11;;;;;;;5.07;1.73;;;;;;;;;;4194388;28;20041;-77
2023/10/05 02:14:16;;;;;;;5.05;1.73;;;;;;;;;;4198004;28;20080;-75
2023/10/05 02:16:20;;;;;;;5.75;2.00;;;;;;;;;;4199612;28;20041;-76
2023/10/05 02:18:24;;;;;;;5.40;1.90;;;;;;;;;;4195089;28;20041;-75
2023/10/05 02:20:40;;;;;;;5.38;2.00;;;;;;;;;;4183147;28;20053;-72
2023/10/05 02:22:46;;;;;;;;;;;;;;;;;;4183405;28;20053;-73
2023/10/05 02:24:51;;;;;;;3.70;1.50;;;;;;;;;;4183293;28;20263;-77
2023/10/05 02:27:09;;;;;;;6.03;1.80;;;;;;;;;;4184228;28;20542;-73
2023/10/05 02:29:14;;;;;;;4.35;1.92;;;;;;;;;;4195588;28;20048;-77
2023/10/05 02:31:20;;;;;;;5.30;1.60;;;;;;;;;;4205667;28;20406;-74
2023/10/05 02:33:26;;;;;;;5.35;1.90;;;;;;;;;;4190078;28;20138;-74
2023/10/05 02:35:32;;;;;;;6.28;2.30;;;;;;;;;;4200151;28;20049;-76
2023/10/05 02:37:40;;;;;;;5.32;1.77;;;;;;;;;;4195112;28;20048;-75
2023/10/05 02:39:42;;;;;;;5.20;1.70;;;;;;;;;;4182925;28;20052;-76
2023/10/05 02:41:44;;;;;;;4.05;1.60;;;;;;;;;;4183987;28;20045;-73
2023/10/05 02:43:52;;;;;;;5.70;1.85;;;;;;;;;;4182676;28;20414;-74
2023/10/05 02:46:01;;;;;;;5.25;1.83;;;;;;;;;;4183792;28;20052;-76
2023/10/05 02:48:09;;;;;;;7.28;1.92;;;;;;;;;;4186796;28;20044;-75
2023/10/05 02:50:13;;;;;;;5.68;1.85;;;;;;;;;;4182609;28;20044;-78
2023/10/05 02:52:16;;;;;;;5.28;1.90;;;;;;;;;;4182651;28;20037;-74
2023/10/05 02:54:18;;;;;;;4.78;1.90;;;;;;;;;;4182647;28;20107;-73
2023/10/05 02:56:27;;;;;;;7.15;2.10;;;;;;;;;;4197519;28;20049;-76
2023/10/05 02:58:29;;;;;;;5.40;2.00;;;;;;;;;;4194919;28;20045;-77
2023/10/05 03:00:34;;;;;;;6.32;2.17;;;;;;;;;;4182522;28;20049;-72
2023/10/05 03:02:40;;;;;;;4.88;2.00;;;;;;;;;;4192936;28;20048;-76
2023/10/05 03:04:48;;;;;;;6.20;2.10;;;;;;;;;;4198235;28;20052;-74
2023/10/05 03:06:52;;;;;;;4.78;1.98;;;;;;;;;;4198653;28;20047;-75
2023/10/05 03:09:01;;;;;;;6.40;1.70;;;;;;;;;;4197546;28;20122;-74
2023/10/05 03:11:02;;;;;;;4.95;2.25;;;;;;;;;;4198900;28;20066;-75
2023/10/05 03:13:05;;;;;;;5.93;2.17;;;;;;;;;;4198490;28;20110;-75
2023/10/05 03:15:08;;;;;;;5.72;2.10;;;;;;;;;;4197233;28;20048;-76
2023/10/05 03:17:13;;;;;;;6.68;2.80;;;;;;;;;;4182890;28;20098;-74
2023/10/05 03:19:20;;;;;;;5.03;2.42;;;;;;;;;;4181896;28;20048;-77
2023/10/05 03:21:24;;;;;;;5.70;2.10;;;;;;;;;;4185247;28;20071;-75
2023/10/05 03:23:26;;;;;;;7.30;2.35;;;;;;;;;;4198241;28;20474;-74
2023/10/05 03:25:28;;;;;;;5.75;2.40;;;;;;;;;;4182405;28;20048;-74
2023/10/05 03:27:31;;;;;;;6.22;2.35;;;;;;;;;;4182745;28;20401;-77
2023/10/05 03:29:35;;;;;;;6.63;2.53;;;;;;;;;;4181456;28;20095;-73
2023/10/05 03:31:43;;;;;;;5.07;2.03;;;;;;;;;;4182366;28;20051;-74
2023/10/05 03:33:46;;;;;;;5.38;2.17;;;;;;;;;;4193897;28;20056;-74
2023/10/05 03:35:48;;;;;;;6.55;2.17;;;;;;;;;;4198644;28;20486;-73
2023/10/05 03:37:53;;;;;;;4.55;1.80;;;;;;;;;;4197946;28;20104;-77
2023/10/05 03:40:06;;;;;;;6.18;2.30;;;;;;;;;;4197870;28;20157;-75
2023/10/05 03:42:08;;;;;;;6.45;2.15;;;;;;;;;;4203890;28;20040;-76
2023/10/05 03:44:15;;;;;;;6.60;2.38;;;;;;;;;;4204771;28;20490;-76
2023/10/05 03:46:19;;;;;;;4.75;1.90;;;;;;;;;;4196772;28;20040;-75
2023/10/05 03:48:20;;;;;;;5.95;1.92;;;;;;;;;;4198133;28;20048;-76
2023/10/05 03:50:22;;;;;;;4.70;2.03;;;;;;;;;;4196421;28;20055;-74
2023/10/05 03:52:29;;;;;;;5.88;2.10;;;;;;;;;;4181517;28;20103;-74
2023/10/05 03:54:34;;;;;;;5.35;2.40;;;;;;;;;;4181710;28;20041;-74
2023/10/05 03:56:36;;;;;;;6.15;2.20;;;;;;;;;;4181564;28;20526;-76
2023/10/05 03:58:39;;;;;;;8.52;2.25;;;;;;;;;;4181522;28;20045;-74
2023/10/05 04:00:41;;;;;;;6.20;2.10;;;;;;;;;;4182065;28;20052;-77
2023/10/05 04:02:43;;;;;;;4.43;1.88;;;;;;;;;;4181257;28;20059;-75
2023/10/05 04:04:45;;;;;;;4.95;2.00;;;;;;;;;;4181275;28;20546;-77
2023/10/05 04:06:50;;;;;;;6.80;2.60;;;;;;;;;;4181948;28;20040;-77
2023/10/05 04:08:57;;;;;;;4.97;2.10;;;;;;;;;;4181950;28;20085;-77
2023/10/05 04:11:04;;;;;;;4.90;2.10;;;;;;;;;;4180947;28;20868;-75
2023/10/05 04:13:07;;;;;;;5.45;2.15;;;;;;;;;;4194664;28;20131;-76
2023/10/05 04:15:13;;;;;;;6.80;2.30;;;;;;;;;;4193393;28;20040;-74
2023/10/05 04:17:20;;;;;;;7.70;1.90;;;;;;;;;;4181617;28;20045;-75
2023/10/05 04:19:24;;;;;;;4.22;1.77;;;;;;;;;;4180858;28;20312;-77
2023/10/05 04:21:25;;;;;;;4.78;1.80;;;;;;;;;;4200827;28;20474;-75
2023/10/05 04:23:28;;;;;;;7.32;2.20;;;;;;;;;;4203746;28;20049;-76
2023/10/05 04:25:30;;;;;;;5.85;1.90;;;;;;;;;;4181490;28;20037;-74
2023/10/05 04:27:33;;;;;;;5.75;2.40;;;;;;;;;;4181354;28;20053;-75
2023/10/05 04:29:37;;;;;;;6.22;2.33;;;;;;;;;;4186970;28;20103;-77
2023/10/05 04:31:38;;;;;;;6.50;2.40;;;;;;;;;;4197971;28;20044;-77
2023/10/05 04:33:43;;;;;;;5.10;2.00;;;;;;;;;;4197656;28;20053;-77
2023/10/05 04:35:46;;;;;;;6.50;2.10;;;;;;;;;;4196235;28;20049;-77
2023/10/05 04:37:47;;;;;;;5.22;2.47;;;;;;;;;;4198069;28;20056;-75
2023/10/05 04:39:49;;;;;;;6.35;2.38;;;;;;;;;;4197382;28;20109;-73
2023/10/05 04:41:55;;;;;;;7.45;2.33;;;;;;;;;;4197937;28;20052;-76
2023/10/05 04:44:00;;;;;;;4.95;2.20;;;;;;;;;;4197494;28;20053;-74
2023/10/05 04:46:07;;;;;;;7.05;2.58;;;;;;;;;;4197776;28;20481;-76
2023/10/05 04:48:12;;;;;;;6.20;2.40;;;;;;;;;;4197747;28;20457;-75
2023/10/05 04:50:15;;;;;;;4.40;1.90;;;;;;;;;;4197689;28;20044;-75
2023/10/05 04:52:22;;;;;;;6.25;2.35;;;;;;;;;;4197876;28;20447;-75
2023/10/05 04:54:26;;;;;;;6.43;2.17;;;;;;;;;;4211165;28;20043;-75
2023/10/05 04:56:35;;;;;;;8.88;2.92;;;;;;;;;;4197590;28;20048;-77
2023/10/05 04:58:53;;;;;;;5.55;2.30;;;;;;;;;;4196244;28;20098;-75
2023/10/05 05:01:18;;;;;;;6.47;2.30;;;;;;;;;;4186746;28;20036;-73
2023/10/05 05:03:48;;;;;;;4.60;1.98;;;;;;;;;;4182834;28;20565;-77
2023/10/05 05:06:08;;;;;;;6.05;2.30;;;;;;;;;;4180997;28;20049;-75
2023/10/05 05:08:11;;;;;;;7.15;2.60;;;;;;;;;;4181140;28;20048;-73
2023/10/05 05:10:13;;;;;;;5.85;2.40;;;;;;;;;;4180976;28;20073;-74
2023/10/05 05:12:17;;;;;;;4.97;2.40;;;;;;;;;;4181120;28;20440;-75
2023/10/05 05:14:19;;;;;;;7.82;2.45;;;;;;;;;;4182102;28;20076;-73
2023/10/05 05:16:23;;;;;;;5.97;2.00;;;;;;;;;;4181051;28;20163;-74
2023/10/05 05:18:25;;;;;;;6.93;2.42;;;;;;;;;;4191174;28;20049;-75
2023/10/05 05:20:27;;;;;;;5.80;2.30;;;;;;;;;;4196073;28;20121;-77
2023/10/05 05:22:32;;;;;;;6.18;2.00;;;;;;;;;;4183251;28;20448;-77
2023/10/05 05:24:35;;;;;;;6.00;2.40;;;;;;;;;;4182425;28;20041;-76
2023/10/05 05:26:37;;;;;;;8.68;2.53;;;;;;;;;;4201926;28;20084;-75
2023/10/05 05:28:43;;;;;;;6.57;2.63;;;;;;;;;;4205173;28;20099;-78
2023/10/05 05:30:47;;;;;;;5.93;2.45;;;;;;;;;;4184377;28;20536;-75
2023/10/05 05:32:51;;;;;;;5.93;2.60;;;;;;;;;;4185113;28;20044;-75
2023/10/05 05:34:54;;;;;;;4.78;2.65;;;;;;;;;;4183776;28;20048;-75
2023/10/05 05:36:55;;;;;;;7.30;2.60;;;;;;;;;;4183878;28;20041;-76
2023/10/05 05:38:57;;;;;;;7.07;2.38;;;;;;;;;;4183742;28;20045;-74
2023/10/05 05:40:59;;;;;;;4.47;2.30;;;;;;;;;;4183809;28;20044;-74
2023/10/05 05:43:07;;;;;;;6.05;2.15;;;;;;;;;;4183651;28;20041;-74
2023/10/05 05:45:15;;;;;;;4.82;2.13;;;;;;;;;;4183762;28;20047;-77
2023/10/05 05:47:17;;;;;;;6.30;2.40;;;;;;;;;;4183636;28;20052;-75
2023/10/05 05:49:21;;;;;;;6.65;2.70;;;;;;;;;;4183556;28;20498;-76
2023/10/05 05:51:24;;;;;;;6.53;2.72;;;;;;;;;;4183531;28;20056;-77
2023/10/05 05:53:25;;;;;;;6.05;2.47;;;;;;;;;;4183606;28;20490;-74
2023/10/05 05:55:29;;;;;;;7.75;2.58;;;;;;;;;;4182834;28;20049;-74
2023/10/05 05:57:31;;;;;;;6.90;2.45;;;;;;;;;;4196002;28;20052;-75
2023/10/05 05:59:34;;;;;;;7.40;2.60;;;;;;;;;;4198742;28;20105;-74
2023/10/05 06:01:36;;;;;;;6.95;2.60;;;;;;;;;;4188942;28;20045;-76
2023/10/05 06:03:39;;;;;;;6.00;2.70;;;;;;;;;;4183616;28;20099;-75
2023/10/05 06:05:42;;;;;;;6.88;3.45;;;;;;;;;;4195673;28;20049;-74
2023/10/05 06:07:45;;;;;;;5.10;2.67;;;;;;;;;;4186705;28;20049;-77
2023/10/05 06:09:48;;;;;;;8.15;2.63;;;;;;;;;;4191985;28;20156;-73
2023/10/05 06:11:50;;;;;;;7.18;2.53;;;;;;;;;;4192904;28;20066;-75
2023/10/05 06:13:53;;;;;;;8.35;2.47;;;;;;;;;;4199915;28;20048;-76
2023/10/05 06:15:55;;;;;;;6.60;2.83;;;;;;;;;;4198083;28;20040;-76
2023/10/05 06:17:59;;;;;;;7.97;2.78;;;;;;;;;;4199154;28;20053;-75
2023/10/05 06:20:03;;;;;;;7.15;3.08;;;;;;;;;;4197651;28;20079;-77
2023/10/05 06:22:07;;;;;;;6.38;2.67;;;;;;;;;;4183114;28;20498;-76
2023/10/05 06:24:10;;;;;;;7.57;2.70;;;;;;;;;;4190244;28;20544;-74
2023/10/05 06:26:12;;;;;;;14.02;3.35;;;;;;;;;;4192071;28;20044;-76
2023/10/05 06:28:14;;;;;;;8.93;2.80;;;;;;;;;;4184339;28;20048;-76
2023/10/05 06:30:17;;;;;;;17.58;9.80;;;;;;;;;;4201128;28;20044;-77
2023/10/05 06:32:19;;;;;;;18.02;10.02;;;;;;;;;;4216455;28;20044;-75
2023/10/05 06:34:22;;;;;;;17.50;7.90;;;;;;;;;;4215711;28;20059;-77
2023/10/05 06:36:25;;;;;;;13.18;5.00;;;;;;;;;;4183012;28;20130;-74
2023/10/05 06:38:28;;;;;;;8.07;4.68;;;;;;;;;;4182984;28;20468;-74
2023/10/05 06:40:30;;;;;;;5.15;2.25;;;;;;;;;;4182889;28;20045;-75
2023/10/05 06:42:32;;;;;;;12.10;5.10;;;;;;;;;;4182991;28;20510;-77
2023/10/05 06:44:34;;;;;;;7.70;3.72;;;;;;;;;;4182606;28;20060;-75
2023/10/05 06:46:36;;;;;;;5.80;3.10;;;;;;;;;;4183820;28;20406;-73
2023/10/05 06:48:40;;;;;;;7.60;2.90;;;;;;;;;;4182804;28;20460;-77
2023/10/05 06:50:43;;;;;;;6.82;2.90;;;;;;;;;;4182638;28;20052;-74
2023/10/05 06:52:46;;;;;;;8.32;3.25;;;;;;;;;;4182938;28;20392;-76
2023/10/05 06:54:50;;;;;;;9.57;3.00;;;;;;;;;;4185498;28;20131;-74
2023/10/05 06:56:52;;;;;;;6.63;3.15;;;;;;;;;;4199047;28;20398;-74
2023/10/05 06:58:55;;;;;;;6.82;2.90;;;;;;;;;;4202772;28;20052;-76
2023/10/05 07:00:57;;;;;;;8.98;3.00;;;;;;;;;;4208023;28;20040;-76
2023/10/05 07:03:06;;;;;;;8.07;3.58;;;;;;;;;;4207119;28;20049;-75
2023/10/05 07:05:08;;;;;;;6.28;3.20;;;;;;;;;;4211537;28;20074;-75
2023/10/05 07:07:10;;;;;;;7.43;3.30;;;;;;;;;;4212796;28;20046;-76
2023/10/05 07:09:12;;;;;;;7.07;3.08;;;;;;;;;;4213741;28;20040;-76
2023/10/05 07:11:16;;;;;;;8.45;3.40;;;;;;;;;;4202803;28;20041;-75
2023/10/05 07:13:21;;;;;;;7.72;3.45;;;;;;;;;;4182710;28;20037;-74
2023/10/05 07:15:24;;;;;;;10.18;3.33;;;;;;;;;;4183995;28;20556;-74
2023/10/05 07:17:26;;;;;;;6.78;3.30;;;;;;;;;;4183618;28;20076;-74
2023/10/05 07:19:28;;;;;;;8.25;3.47;;;;;;;;;;4185232;28;20052;-74
2023/10/05 07:21:32;;;;;;;7.57;3.17;;;;;;;;;;4185832;28;20045;-74
2023/10/05 07:23:34;;;;;;;7.43;3.50;;;;;;;;;;4183410;28;20504;-75
2023/10/05 07:25:37;;;;;;;9.20;3.60;;;;;;;;;;4188588;28;20497;-74
2023/10/05 07:27:41;;;;;;;9.52;3.25;;;;;;;;;;4198435;28;20041;-75
2023/10/05 07:29:45;;;;;;;8.38;3.55;;;;;;;;;;4185641;28;20080;-75
2023/10/05 07:31:47;;;;;;;8.60;3.17;;;;;;;;;;4195339;28;20129;-75
2023/10/05 07:33:49;;;;;;;6.68;3.30;;;;;;;;;;4194373;28;20052;-74
2023/10/05 07:35:53;;;;;;;7.43;3.55;;;;;;;;;;4182259;28;20449;-75
2023/10/05 07:37:55;;;;;;;7.55;3.22;;;;;;;;;;4191237;28;20041;-74
2023/10/05 07:39:58;;;;;;;7.93;3.30;;;;;;;;;;4198024;28;20044;-74
2023/10/05 07:42:01;;;;;;;7.47;2.85;;;;;;;;;;4198605;28;20044;-75
2023/10/05 07:44:05;;;;;;;5.22;2.75;;;;;;;;;;4198684;28;20045;-75
2023/10/05 07:46:09;;;;;;;7.20;3.30;;;;;;;;;;4198671;28;20048;-75
2023/10/05 07:48:12;;;;;;;7.70;3.30;;;;;;;;;;4196898;28;20532;-75
2023/10/05 07:50:14;;;;;;;8.45;3.28;;;;;;;;;;4198335;28;20048;-74
2023/10/05 07:52:17;;;;;;;9.82;3.45;;;;;;;;;;4198595;28;20150;-75
2023/10/05 07:54:19;;;;;;;7.90;3.20;;;;;;;;;;4198654;28;20478;-74
2023/10/05 07:56:21;;;;;;;10.02;3.40;;;;;;;;;;4198875;28;20456;-75
2023/10/05 07:58:24;;;;;;;8.23;3.13;;;;;;;;;;4198199;28;20052;-74
2023/10/05 08:00:26;;;;;;;9.98;3.38;;;;;;;;;;4198331;28;20103;-76
2023/10/05 08:02:28;;;;;;;7.00;3.35;;;;;;;;;;4198249;28;20049;-75
2023/10/05 08:04:32;;;;;;;7.15;3.30;;;;;;;;;;4196484;28;20049;-75
2023/10/05 08:06:34;;;;;;;5.88;3.00;;;;;;;;;;4198306;28;20051;-75
2023/10/05 08:08:36;;;;;;;7.28;2.97;;;;;;;;;;4198176;28;20413;-76
2023/10/05 08:10:39;;;;;;;8.73;3.28;;;;;;;;;;4198401;28;20053;-77
2023/10/05 08:12:42;;;;;;;6.43;3.08;;;;;;;;;;4198143;28;20528;-76
2023/10/05 08:14:45;;;;;;;8.77;3.40;;;;;;;;;;4198303;28;20139;-73
2023/10/05 08:16:48;;;;;;;5.93;2.78;;;;;;;;;;4197087;28;20481;-75
2023/10/05 08:18:51;;;;;;;7.85;3.05;;;;;;;;;;4198140;28;20516;-75
2023/10/05 08:20:53;;;;;;;9.45;3.40;;;;;;;;;;4198645;28;20440;-75
2023/10/05 08:22:56;;;;;;;10.25;4.30;;;;;;;;;;4198375;28;20048;-75
2023/10/05 08:25:00;;;;;;;8.30;3.30;;;;;;;;;;4196644;28;20509;-74
2023/10/05 08:27:02;;;;;;;9.43;3.20;;;;;;;;;;4198523;28;20083;-75
2023/10/05 08:29:06;;;;;;;10.73;3.63;;;;;;;;;;4204921;28;20051;-77
2023/10/05 08:31:11;;;;;;;8.13;3.00;;;;;;;;;;4200856;28;20462;-75
2023/10/05 08:33:19;;;;;;;7.35;2.85;;;;;;;;;;4198329;28;20405;-76
2023/10/05 08:35:21;;;;;;;7.00;2.80;;;;;;;;;;4198399;28;20071;-75
2023/10/05 08:37:23;;;;;;;8.75;3.25;;;;;;;;;;4198162;28;20132;-74
2023/10/05 08:39:26;;;;;;;6.47;2.83;;;;;;;;;;4196474;28;20053;-77
2023/10/05 08:41:34;;;;;;;7.55;3.22;;;;;;;;;;4198201;28;20052;-77
2023/10/05 08:43:40;;;;;;;7.35;2.95;;;;;;;;;;4198261;28;20473;-76
2023/10/05 08:45:46;;;;;;;8.00;2.80;;;;;;;;;;4197936;28;20045;-76
2023/10/05 08:47:48;;;;;;;;;;;;;;;;;;4198675;28;20466;-77
2023/10/05 08:49:51;;;;;;;8.57;3.00;;;;;;;;;;4197959;28;19974;-76
2023/10/05 08:51:54;;;;;;;6.63;2.85;;;;;;;;;;4198256;28;20048;-76
2023/10/05 08:53:55;;;;;;;10.98;3.17;;;;;;;;;;4198122;28;20052;-75
2023/10/05 08:55:59;;;;;;;8.52;3.15;;;;;;;;;;4197951;28;20478;-76
2023/10/05 08:58:03;;;;;;;6.25;2.85;;;;;;;;;;4196410;28;20055;-74
2023/10/05 09:00:09;;;;;;;9.27;3.00;;;;;;;;;;4198120;28;20456;-76
2023/10/05 09:02:12;;;;;;;6.55;3.15;;;;;;;;;;4199744;28;20051;-77
2023/10/05 09:04:29;;;;;;;10.82;3.25;;;;;;;;;;4201296;28;20076;-77
2023/10/05 09:06:34;;;;;;;8.60;3.20;;;;;;;;;;4201236;28;20048;-74
2023/10/05 09:08:43;;;;;;;8.10;3.33;;;;;;;;;;4201221;28;20083;-74
2023/10/05 09:10:51;;;;;;;8.75;2.95;;;;;;;;;;4201071;28;20123;-74
2023/10/05 09:12:58;;;;;;;6.78;2.63;;;;;;;;;;4184584;28;20482;-75
2023/10/05 09:15:18;;;;;;;7.43;2.97;;;;;;;;;;4184397;28;20052;-73
2023/10/05 09:17:22;;;;;;;8.82;2.95;;;;;;;;;;4184488;28;20049;-77
2023/10/05 09:19:29;;;;;;;6.03;2.55;;;;;;;;;;4184722;28;20053;-74
2023/10/05 09:21:44;;;;;;;8.10;2.78;;;;;;;;;;4200821;28;20048;-75
2023/10/05 09:23:47;;;;;;;10.45;3.20;;;;;;;;;;4197842;28;20056;-75
2023/10/05 09:25:50;;;;;;;5.43;2.50;;;;;;;;;;4201560;28;20058;-76
2023/10/05 09:27:51;;;;;;;8.75;2.70;;;;;;;;;;4185257;28;20449;-77
2023/10/05 09:30:09;;;;;;;7.70;2.40;;;;;;;;;;4182991;28;20049;-74
2023/10/05 09:32:25;;;;;;;6.53;2.58;;;;;;;;;;4197936;28;20049;-78
2023/10/05 09:34:43;;;;;;;8.95;2.60;;;;;;;;;;4189455;28;20132;-75
2023/10/05 09:36:47;;;;;;;8.02;2.45;;;;;;;;;;4181942;28;20091;-77
2023/10/05 09:38:51;;;;;;;6.18;2.60;;;;;;;;;;4182286;28;20139;-77
2023/10/05 09:40:55;;;;;;;8.40;2.80;;;;;;;;;;4185885;28;20045;-76
2023/10/05 09:42:59;;;;;;;8.13;2.60;;;;;;;;;;4181843;28;20088;-74
2023/10/05 09:45:08;;;;;;;8.40;2.70;;;;;;;;;;4181223;28;20180;-76
2023/10/05 09:47:12;;;;;;;8.23;2.78;;;;;;;;;;4181672;28;20391;-75
2023/10/05 09:49:17;;;;;;;6.95;3.00;;;;;;;;;;4181396;28;20071;-75
2023/10/05 09:51:19;;;;;;;6.55;2.40;;;;;;;;;;4181803;28;20094;-77
2023/10/05 09:53:23;;;;;;;7.07;2.63;;;;;;;;;;4181696;28;20045;-74
2023/10/05 09:55:29;;;;;;;8.30;2.92;;;;;;;;;;4188581;28;20416;-76
2023/10/05 09:57:40;;;;;;;13.82;3.15;;;;;;;;;;4198477;28;20110;-74
2023/10/05 09:59:44;;;;;;;9.85;3.47;;;;;;;;;;4198469;28;20045;-76
2023/10/05 10:01:50;;;;;;;18.77;7.03;;;;;;;;;;4197671;28;20044;-75
2023/10/05 10:03:53;;;;;;;12.93;5.72;;;;;;;;;;4198201;28;20048;-75
2023/10/05 10:06:08;;;;;;;13.35;5.35;;;;;;;;;;4198436;28;20056;-75
2023/10/05 10:08:14;;;;;;;13.30;5.80;;;;;;;;;;4187712;28;20053;-76
2023/10/05 10:10:19;;;;;;;11.30;4.38;;;;;;;;;;4181539;28;20128;-75
2023/10/05 10:12:25;;;;;;;12.45;5.07;;;;;;;;;;4181021;28;20091;-78
2023/10/05 10:14:27;;;;;;;16.27;7.10;;;;;;;;;;4181163;28;20110;-75
2023/10/05 10:16:33;;;;;;;15.02;6.82;;;;;;;;;;4180849;28;20045;-74
2023/10/05 10:18:37;;;;;;;10.15;4.68;;;;;;;;;;4181157;28;20057;-77
2023/10/05 10:20:39;;;;;;;8.88;3.92;;;;;;;;;;4181709;28;20114;-77
2023/10/05 10:22:53;;;;;;;13.50;3.78;;;;;;;;;;4182146;28;20048;-76
2023/10/05 10:24:56;;;;;;;8.75;4.05;;;;;;;;;;4180987;28;20059;-73
2023/10/05 10:27:08;;;;;;;11.90;4.10;;;;;;;;;;4181185;28;20075;-76
2023/10/05 10:29:11;;;;;;;8.23;3.38;;;;;;;;;;4181376;28;20110;-75
2023/10/05 10:31:14;;;;;;;10.98;3.97;;;;;;;;;;4179994;28;20049;-75
2023/10/05 10:33:24;;;;;;;10.00;3.60;;;;;;;;;;4181108;28;20132;-76
2023/10/05 10:35:28;;;;;;;10.40;3.95;;;;;;;;;;4186484;28;20048;-74
2023/10/05 10:37:39;;;;;;;10.25;3.35;;;;;;;;;;4197603;28;20048;-73
2023/10/05 10:39:47;;;;;;;8.63;3.08;;;;;;;;;;4195680;28;20504;-77
2023/10/05 10:41:54;;;;;;;9.52;3.30;;;;;;;;;;4197923;28;20406;-75
2023/10/05 10:44:00;;;;;;;9.50;2.92;;;;;;;;;;4197693;28;20387;-76
2023/10/05 10:46:12;;;;;;;6.60;2.90;;;;;;;;;;4197735;28;20063;-75
2023/10/05 10:48:22;;;;;;;6.93;2.60;;;;;;;;;;4197368;28;20052;-75
2023/10/05 10:50:29;;;;;;;6.68;2.70;;;;;;;;;;4198530;28;20084;-75
2023/10/05 10:52:32;;;;;;;9.20;2.85;;;;;;;;;;4198289;28;20051;-73
2023/10/05 10:54:37;;;;;;;8.73;2.78;;;;;;;;;;4196731;28;20160;-75
2023/10/05 10:56:42;;;;;;;10.47;2.87;;;;;;;;;;4181535;28;20041;-76
2023/10/05 10:58:44;;;;;;;9.23;2.90;;;;;;;;;;4180974;28;20447;-75
2023/10/05 11:00:56;;;;;;;9.60;2.72;;;;;;;;;;4180810;28;20099;-74
2023/10/05 11:02:57;;;;;;;7.45;2.92;;;;;;;;;;4181935;28;20111;-77
2023/10/05 11:05:04;;;;;;;10.57;3.78;;;;;;;;;;4180239;28;20057;-77
2023/10/05 11:07:06;;;;;;;10.43;3.45;;;;;;;;;;4180465;28;20057;-75
2023/10/05 11:09:10;;;;;;;10.95;3.05;;;;;;;;;;4180708;28;20049;-74
2023/10/05 11:11:15;;;;;;;10.73;3.40;;;;;;;;;;4181043;28;20463;-77
2023/10/05 11:13:18;;;;;;;11.70;3.60;;;;;;;;;;4180551;28;20095;-77
2023/10/05 11:15:22;;;;;;;12.05;3.78;;;;;;;;;;4180546;28;20045;-76
2023/10/05 11:17:35;;;;;;;9.02;3.50;;;;;;;;;;4181110;28;20148;-73
2023/10/05 11:19:38;;;;;;;11.20;3.40;;;;;;;;;;4195188;28;20060;-74
2023/10/05 11:21:45;;;;;;;12.60;3.83;;;;;;;;;;4197263;28;20048;-74
2023/10/05 11:23:48;;;;;;;11.05;3.70;;;;;;;;;;4196955;28;20053;-78
2023/10/05 11:25:51;;;;;;;8.50;3.28;;;;;;;;;;4197354;28;20181;-73
2023/10/05 11:27:56;;;;;;;10.70;3.38;;;;;;;;;;4197085;28;20048;-74
2023/10/05 11:29:59;;;;;;;10.35;3.50;;;;;;;;;;4197487;28;20049;-76
2023/10/05 11:32:03;;;;;;;9.65;3.40;;;;;;;;;;4186039;28;20564;-76
2023/10/05 11:34:11;;;;;;;10.77;3.70;;;;;;;;;;4180487;28;20055;-75
2023/10/05 11:36:17;;;;;;;9.50;3.78;;;;;;;;;;4180566;28;20049;-76
2023/10/05 11:38:20;;;;;;;10.55;3.53;;;;;;;;;;4180647;28;20049;-75
2023/10/05 11:40:30;;;;;;;11.05;3.72;;;;;;;;;;4179706;28;20487;-76
2023/10/05 11:42:35;;;;;;;10.20;4.00;;;;;;;;;;4180334;28;20532;-75
2023/10/05 11:44:41;;;;;;;9.73;3.50;;;;;;;;;;4180166;28;20548;-76
2023/10/05 11:46:46;;;;;;;9.73;3.40;;;;;;;;;;4180790;28;20303;-77
2023/10/05 11:48:50;;;;;;;9.90;3.35;;;;;;;;;;4180372;28;20391;-76
2023/10/05 11:50:53;;;;;;;10.85;3.63;;;;;;;;;;4180682;28;20049;-77
2023/10/05 11:52:55;;;;;;;9.00;3.78;;;;;;;;;;4180238;28;20406;-77
2023/10/05 11:54:57;;;;;;;10.55;3.70;;;;;;;;;;4184105;28;20080;-74
2023/10/05 11:57:00;;;;;;;9.00;3.35;;;;;;;;;;4192726;28;20045;-76
2023/10/05 11:59:05;;;;;;;10.27;3.70;;;;;;;;;;4191287;28;20046;-80
2023/10/05 12:01:07;;;;;;;9.03;3.53;;;;;;;;;;4218591;28;20114;-77
2023/10/05 12:03:09;;;;;;;9.10;3.60;;;;;;;;;;4208631;28;20041;-74
2023/10/05 12:05:12;;;;;;;9.43;3.53;;;;;;;;;;4196665;28;20055;-74
2023/10/05 12:07:16;;;;;;;9.65;3.67;;;;;;;;;;4194601;28;20485;-74
2023/10/05 12:09:27;;;;;;;11.68;3.35;;;;;;;;;;4188393;28;20452;-74
2023/10/05 12:11:30;;;;;;;9.75;3.60;;;;;;;;;;4194390;28;20470;-79
2023/10/05 12:13:32;;;;;;;9.55;3.78;;;;;;;;;;4181761;28;20045;-80
2023/10/05 12:15:36;;;;;;;9.63;3.83;;;;;;;;;;4180745;28;20478;-79
2023/10/05 12:17:39;;;;;;;11.18;3.60;;;;;;;;;;4181687;28;20044;-77
2023/10/05 12:19:41;;;;;;;9.25;3.20;;;;;;;;;;4181604;28;20057;-79
2023/10/05 12:21:43;;;;;;;9.85;3.38;;;;;;;;;;4181760;28;20254;-77
2023/10/05 12:23:46;;;;;;;11.55;3.88;;;;;;;;;;4181921;28;20544;-79
2023/10/05 12:25:53;;;;;;;13.70;3.80;;;;;;;;;;4184722;28;20053;-75
2023/10/05 12:27:56;;;;;;;11.05;3.83;;;;;;;;;;4198301;28;20044;-75